Time;durP1;ratioP1;P1;durP2;ratioP2;P2;SDS_P1;SDS_P2;PMS_P1;PMS_P2;Temp;Humidity;BMP_temperature;BMP_pressure;BME280_temperature;BME280_humidity;BME280_pressure;Samples;Min_cycle;Max_cycle;Signal;HPM_P1;HPM_P2
2022/07/03 00:04:50;;;;;;;7.90;7.10;;;;;;;19.28;59.06;99626.75;233321;1217;140108;-57
2022/07/03 00:09:53;;;;;;;8.00;6.50;;;;;;;19.35;59.35;99616.02;233404;1217;139522;-56
2022/07/03 00:14:56;;;;;;;8.20;6.60;;;;;;;19.43;59.31;99611.79;233539;1217;141370;-56
2022/07/03 00:19:59;;;;;;;6.90;6.20;;;;;;;19.57;59.46;99613.87;233459;1217;139854;-57
2022/07/03 00:25:05;;;;;;;7.90;6.30;;;;;;;19.64;59.42;99610.58;233411;1217;139520;-58
2022/07/03 00:30:10;;;;;;;7.50;6.10;;;;;;;19.73;59.47;99605.14;233606;1217;138954;-57
2022/07/03 00:35:17;;;;;;;8.60;6.40;;;;;;;19.75;59.34;99601.66;233518;1217;139388;-57
2022/07/03 00:40:21;;;;;;;10.10;5.70;;;;;;;19.72;59.24;99608.71;233585;1217;138854;-59
2022/07/03 00:45:25;;;;;;;7.30;6.00;;;;;;;19.58;59.04;99594.70;233502;1217;139617;-58
2022/07/03 00:50:36;;;;;;;8.70;6.00;;;;;;;19.54;59.20;99593.17;233453;1217;139782;-59
2022/07/03 00:55:43;;;;;;;8.10;6.40;;;;;;;19.54;59.33;99587.34;233551;1217;140106;-58
2022/07/03 01:00:49;;;;;;;9.40;7.30;;;;;;;19.56;59.13;99582.11;233669;1217;139255;-59
2022/07/03 01:05:55;;;;;;;9.00;7.60;;;;;;;19.44;58.85;99575.86;233847;1216;139101;-57
2022/07/03 01:11:27;;;;;;;7.90;7.10;;;;;;;19.40;59.09;99576.94;233506;1217;138720;-58
2022/07/03 01:16:55;;;;;;;7.70;6.90;;;;;;;19.38;59.17;99565.43;233566;1216;138903;-56
2022/07/03 01:22:16;;;;;;;8.20;7.10;;;;;;;19.28;58.98;99559.17;233566;1217;138846;-57
2022/07/03 01:27:34;;;;;;;9.60;7.10;;;;;;;19.14;58.98;99561.48;233630;1217;139834;-58
2022/07/03 01:32:52;;;;;;;9.50;6.80;;;;;;;18.98;58.98;99555.66;233589;1217;138689;-58
2022/07/03 01:38:00;;;;;;;8.80;6.80;;;;;;;18.98;59.25;99556.09;233637;1217;139489;-58
2022/07/03 01:43:06;;;;;;;8.30;7.30;;;;;;;19.00;59.38;99561.23;233609;1217;140636;-59
2022/07/03 01:48:11;;;;;;;8.40;7.20;;;;;;;19.04;59.49;99558.19;233687;1217;138721;-59
2022/07/03 01:53:15;;;;;;;8.60;7.20;;;;;;;19.02;59.55;99551.54;233624;1217;139279;-58
2022/07/03 01:58:18;;;;;;;8.40;7.40;;;;;;;19.07;59.77;99551.80;233623;1217;139744;-57
2022/07/03 02:03:32;;;;;;;9.40;6.90;;;;;;;19.12;59.93;99556.93;233512;1217;139725;-58
2022/07/03 02:08:44;;;;;;;8.80;6.60;;;;;;;19.13;59.91;99557.52;232642;1216;139481;-56
2022/07/03 02:14:32;;;;;;;8.90;6.60;;;;;;;19.13;60.11;99550.36;233579;1217;139373;-56
2022/07/03 02:19:54;;;;;;;11.20;6.50;;;;;;;19.17;60.07;99552.75;233527;1217;139435;-58
2022/07/03 02:25:05;;;;;;;8.30;6.70;;;;;;;19.20;60.07;99542.21;233588;1217;139082;-58
2022/07/03 02:30:08;;;;;;;9.00;6.20;;;;;;;19.26;60.17;99540.59;233743;1217;139752;-56
2022/07/03 02:35:18;;;;;;;12.80;7.10;;;;;;;19.29;60.09;99537.67;233516;1217;140095;-57
2022/07/03 02:40:32;;;;;;;9.90;7.10;;;;;;;19.30;60.21;99540.60;233560;1217;140535;-58
2022/07/03 02:46:48;;;;;;;9.20;7.00;;;;;;;19.34;60.06;99537.65;233563;1217;138566;-58
2022/07/03 02:51:37;;;;;;;8.60;7.00;;;;;;;19.30;60.10;99535.35;233567;1217;139394;-57
2022/07/03 02:57:07;;;;;;;7.90;6.30;;;;;;;19.29;60.19;99531.56;233534;1217;139508;-57
2022/07/03 03:02:19;;;;;;;11.30;6.90;;;;;;;19.32;59.99;99529.84;233402;1217;139806;-58
2022/07/03 03:07:32;;;;;;;11.10;7.20;;;;;;;19.32;60.26;99525.47;233443;1218;140244;-59
2022/07/03 03:12:41;;;;;;;10.60;7.20;;;;;;;19.36;60.16;99531.02;233592;1217;139417;-58
2022/07/03 03:17:50;;;;;;;8.50;7.20;;;;;;;19.36;60.40;99530.64;233639;1217;142007;-58
2022/07/03 03:22:59;;;;;;;9.10;7.00;;;;;;;19.38;60.51;99530.52;233565;1217;138708;-58
2022/07/03 03:28:03;;;;;;;11.40;7.00;;;;;;;19.37;60.74;99531.30;233448;1217;141738;-58
2022/07/03 03:33:08;;;;;;;10.30;7.00;;;;;;;19.38;60.73;99531.04;233468;1217;140306;-59
2022/07/03 03:38:12;;;;;;;10.20;6.50;;;;;;;19.39;60.69;99529.53;233544;1217;140469;-58
2022/07/03 03:43:15;;;;;;;9.70;6.90;;;;;;;19.45;60.89;99529.13;233570;1217;139489;-59
2022/07/03 03:48:18;;;;;;;9.90;7.60;;;;;;;19.56;61.11;99528.83;233564;1217;139842;-59
2022/07/03 03:53:23;;;;;;;8.40;7.10;;;;;;;19.73;61.22;99525.52;233674;1217;140856;-59
2022/07/03 03:58:27;;;;;;;8.60;7.40;;;;;;;19.78;61.03;99520.36;233366;1217;139160;-60
2022/07/03 04:03:31;;;;;;;12.00;7.90;;;;;;;19.81;60.94;99518.69;233506;1217;139536;-60
2022/07/03 04:08:34;;;;;;;10.30;7.30;;;;;;;19.83;60.98;99514.28;233335;1215;138955;-60
2022/07/03 04:13:37;;;;;;;9.70;6.50;;;;;;;19.79;60.87;99521.35;233576;1216;139155;-60
2022/07/03 04:18:40;;;;;;;9.90;6.90;;;;;;;19.87;61.10;99522.84;233416;1217;139153;-59
2022/07/03 04:23:43;;;;;;;11.70;7.10;;;;;;;19.95;61.05;99526.17;233590;1217;138966;-60
2022/07/03 04:28:46;;;;;;;10.90;7.00;;;;;;;20.03;61.30;99527.96;233640;1217;139208;-60
2022/07/03 04:33:49;;;;;;;9.60;6.70;;;;;;;20.21;61.34;99526.26;233630;1217;139925;-60
2022/07/03 04:38:52;;;;;;;9.60;6.40;;;;;;;20.26;61.05;99523.97;233589;1217;139197;-59
2022/07/03 04:43:55;;;;;;;8.20;6.20;;;;;;;20.29;61.02;99519.05;233635;1217;138911;-59
2022/07/03 04:48:58;;;;;;;11.40;6.80;;;;;;;20.31;61.01;99520.84;233283;1217;139464;-58
2022/07/03 04:54:02;;;;;;;8.60;5.60;;;;;;;20.32;61.09;99516.08;233712;1215;140027;-57
2022/07/03 04:59:05;;;;;;;8.30;5.70;;;;;;;20.36;61.02;99505.23;233490;1217;140073;-58
2022/07/03 05:04:07;;;;;;;70.40;61.70;;;;;;;20.54;61.19;99509.48;233507;1217;139850;-57
2022/07/03 05:09:10;;;;;;;122.30;103.30;;;;;;;20.92;62.35;99506.35;233668;1217;139686;-59
2022/07/03 05:14:13;;;;;;;8.30;7.40;;;;;;;21.40;61.59;99496.53;233618;1217;139757;-59
2022/07/03 05:19:16;;;;;;;118.20;96.40;;;;;;;21.54;60.92;99489.77;233423;1217;139707;-60
2022/07/03 05:24:21;;;;;;;15.70;10.80;;;;;;;21.72;61.00;99476.00;233656;1215;139897;-59
2022/07/03 05:29:24;;;;;;;14.00;11.10;;;;;;;21.91;60.81;99477.16;233738;1217;140383;-59
2022/07/03 05:34:27;;;;;;;322.80;274.50;;;;;;;22.09;60.40;99479.14;233564;1217;140006;-60
2022/07/03 05:39:33;;;;;;;12.80;11.50;;;;;;;22.16;59.95;99483.98;233372;1217;140610;-60
2022/07/03 05:44:35;;;;;;;28.40;23.70;;;;;;;22.12;59.51;99485.65;233515;1217;141756;-60
2022/07/03 05:49:38;;;;;;;11.60;9.10;;;;;;;22.20;59.82;99489.88;233660;1216;139098;-57
2022/07/03 05:54:42;;;;;;;24.30;20.90;;;;;;;22.50;59.99;99487.55;233530;1216;139492;-59
2022/07/03 05:59:45;;;;;;;9.60;8.50;;;;;;;22.60;59.33;99482.85;233572;1216;139755;-58
2022/07/03 06:04:49;;;;;;;12.80;10.40;;;;;;;22.70;58.98;99492.98;233433;1217;139419;-58
2022/07/03 06:09:52;;;;;;;19.60;15.50;;;;;;;22.78;59.04;99494.93;233441;1217;139420;-58
2022/07/03 06:14:55;;;;;;;13.10;11.50;;;;;;;22.78;58.56;99499.44;233661;1215;140032;-58
2022/07/03 06:20:05;;;;;;;9.90;8.90;;;;;;;22.83;58.66;99495.09;233547;1217;139589;-59
2022/07/03 06:25:09;;;;;;;8.50;7.70;;;;;;;22.95;58.43;99492.95;233453;1217;138954;-58
2022/07/03 06:30:12;;;;;;;7.70;7.00;;;;;;;23.04;58.39;99495.10;233677;1217;139328;-58
2022/07/03 06:35:15;;;;;;;9.10;7.10;;;;;;;23.14;58.20;99491.84;233403;1217;139118;-58
2022/07/03 06:40:18;;;;;;;8.20;6.70;;;;;;;23.25;58.24;99491.30;233651;1217;138737;-61
2022/07/03 06:45:21;;;;;;;91.50;81.70;;;;;;;23.43;58.11;99487.41;233547;1217;139407;-60
2022/07/03 06:50:24;;;;;;;24.10;21.60;;;;;;;23.64;57.89;99480.29;233368;1217;139900;-60
2022/07/03 06:55:28;;;;;;;13.70;11.40;;;;;;;23.81;57.59;99476.20;233444;1217;139158;-59
2022/07/03 07:00:31;;;;;;;10.30;8.20;;;;;;;23.78;56.92;99474.89;233862;1216;139730;-60
2022/07/03 07:05:34;;;;;;;7.70;6.00;;;;;;;23.82;56.81;99475.88;233759;1217;139535;-59
2022/07/03 07:10:37;;;;;;;7.20;5.50;;;;;;;23.81;56.58;99468.63;233454;1215;138931;-58
2022/07/03 07:15:39;;;;;;;12.10;10.60;;;;;;;23.88;56.50;99460.20;233427;1217;139097;-59
2022/07/03 07:20:42;;;;;;;7.30;6.10;;;;;;;23.90;56.14;99452.95;233687;1215;140064;-58
2022/07/03 07:25:45;;;;;;;7.60;4.90;;;;;;;23.87;55.92;99447.42;233612;1215;138866;-58
2022/07/03 07:30:48;;;;;;;6.10;5.00;;;;;;;24.01;56.01;99444.24;233477;1217;138961;-58
2022/07/03 07:35:51;;;;;;;5.30;4.50;;;;;;;24.14;55.72;99440.84;233553;1217;139183;-59
2022/07/03 07:40:54;;;;;;;5.30;4.80;;;;;;;24.18;55.64;99439.60;233715;1217;139624;-57
2022/07/03 07:45:57;;;;;;;4.90;4.40;;;;;;;24.24;55.22;99440.17;233671;1217;139475;-56
2022/07/03 07:51:01;;;;;;;34.80;31.00;;;;;;;24.26;55.13;99438.33;233444;1215;139815;-57
2022/07/03 07:56:05;;;;;;;;;;;;;;;24.30;54.90;99432.27;233471;1217;140281;-58
2022/07/03 08:06:31;;;;;;;8.20;5.20;;;;;;;24.28;54.64;99427.55;233626;1217;139822;-56
2022/07/03 08:11:34;;;;;;;4.90;4.40;;;;;;;24.38;54.72;99422.18;233703;1217;138677;-57
2022/07/03 08:16:38;;;;;;;7.20;4.20;;;;;;;24.37;54.39;99417.86;233621;1215;138937;-57
2022/07/03 08:21:42;;;;;;;6.90;4.00;;;;;;;24.33;54.37;99417.58;233362;1217;139173;-56
2022/07/03 08:26:45;;;;;;;11.10;4.50;;;;;;;24.32;54.07;99423.02;233424;1217;139354;-56
2022/07/03 08:31:48;;;;;;;6.70;4.80;;;;;;;24.36;54.18;99421.23;233694;1215;139382;-56
2022/07/03 08:36:52;;;;;;;27.00;22.90;;;;;;;24.55;54.11;99421.52;233545;1216;138856;-58
2022/07/03 08:41:55;;;;;;;12.40;9.40;;;;;;;24.61;53.87;99414.59;233546;1217;139547;-55
2022/07/03 08:46:59;;;;;;;16.10;8.70;;;;;;;24.66;53.83;99412.76;233391;1217;139303;-55
2022/07/03 08:52:02;;;;;;;22.10;8.90;;;;;;;24.83;53.74;99411.77;233643;1217;139687;-56
2022/07/03 08:57:07;;;;;;;30.80;9.60;;;;;;;25.01;53.62;99414.20;233668;1217;139304;-56
2022/07/03 09:02:10;;;;;;;7.80;5.60;;;;;;;25.14;53.84;99405.91;233507;1217;138938;-58
2022/07/03 09:07:14;;;;;;;161.20;141.40;;;;;;;25.13;52.95;99401.92;233430;1217;139149;-57
2022/07/03 09:12:18;;;;;;;26.60;16.00;;;;;;;25.02;52.76;99398.02;233692;1217;139709;-58
2022/07/03 09:17:21;;;;;;;24.80;15.80;;;;;;;25.08;53.03;99394.61;233663;1217;139469;-57
2022/07/03 09:22:26;;;;;;;8.20;6.20;;;;;;;25.16;52.84;99386.99;233461;1217;139235;-57
2022/07/03 09:27:29;;;;;;;11.00;6.20;;;;;;;25.22;52.84;99385.49;233387;1217;138809;-57
2022/07/03 09:32:41;;;;;;;15.00;6.70;;;;;;;25.32;52.53;99382.56;233469;1216;139644;-57
2022/07/03 09:37:54;;;;;;;14.20;6.80;;;;;;;25.47;52.50;99383.16;233510;1217;138992;-58
2022/07/03 09:43:05;;;;;;;19.70;13.40;;;;;;;25.58;52.48;99376.60;233363;1217;139002;-57
2022/07/03 09:48:30;;;;;;;11.50;7.30;;;;;;;25.66;52.16;99374.39;233483;1217;139586;-57
2022/07/03 09:53:53;;;;;;;6.80;5.70;;;;;;;25.63;51.83;99378.49;233437;1217;139330;-57
2022/07/03 09:59:08;;;;;;;10.50;6.50;;;;;;;25.55;51.71;99376.80;233357;1217;138983;-56
2022/07/03 10:04:19;;;;;;;6.40;5.70;;;;;;;25.45;51.56;99370.17;233530;1217;139212;-55
2022/07/03 10:09:27;;;;;;;8.40;6.20;;;;;;;25.45;51.74;99369.97;233354;1217;139884;-56
2022/07/03 10:14:31;;;;;;;6.80;6.10;;;;;;;25.42;51.73;99362.36;233391;1217;139806;-56
2022/07/03 10:19:39;;;;;;;8.60;5.90;;;;;;;25.41;51.68;99362.30;233485;1217;140500;-57
2022/07/03 10:24:42;;;;;;;6.00;5.40;;;;;;;25.46;51.75;99360.73;233574;1217;139010;-59
2022/07/03 10:29:46;;;;;;;6.80;6.10;;;;;;;25.65;51.69;99348.29;233733;1216;138847;-56
2022/07/03 10:34:49;;;;;;;7.20;6.20;;;;;;;25.95;51.03;99341.66;233371;1217;139013;-57
2022/07/03 10:45:28;;;;;;;7.80;5.40;;;;;;;26.33;50.06;99334.23;233581;1217;139814;-55
2022/07/03 10:50:36;;;;;;;22.90;17.60;;;;;;;26.52;49.94;99329.21;233558;1216;139117;-56
2022/07/03 10:56:03;;;;;;;8.10;6.60;;;;;;;26.69;49.53;99325.39;233319;1217;139094;-57
2022/07/03 11:01:07;;;;;;;9.10;7.80;;;;;;;26.81;48.98;99312.71;233315;1217;139222;-57
2022/07/03 11:06:11;;;;;;;8.70;6.40;;;;;;;27.08;48.59;99303.51;233724;1216;139258;-54
2022/07/03 11:17:20;;;;;;;5.90;5.30;;;;;;;27.55;47.91;99284.05;233359;1217;138558;-55
2022/07/03 11:22:26;;;;;;;7.80;5.20;;;;;;;27.68;47.44;99283.92;233226;1216;139845;-55
2022/07/03 11:27:34;;;;;;;6.00;4.80;;;;;;;27.75;47.16;99284.54;233218;1217;139127;-55
2022/07/03 11:32:57;;;;;;;6.20;4.80;;;;;;;27.78;46.88;99277.84;233136;1217;139576;-55
2022/07/03 11:38:00;;;;;;;5.70;5.00;;;;;;;27.79;46.84;99275.11;233791;1216;139719;-56
2022/07/03 11:43:05;;;;;;;6.60;5.10;;;;;;;28.05;46.65;99274.22;233210;1216;244013;-56
2022/07/03 11:48:11;;;;;;;7.60;4.80;;;;;;;28.16;46.16;99271.58;233390;1217;139809;-55
2022/07/03 11:53:36;;;;;;;9.20;8.00;;;;;;;28.32;46.09;99270.95;233378;1217;139572;-56
2022/07/03 11:58:45;;;;;;;5.60;4.80;;;;;;;28.54;45.55;99269.58;233424;1217;139106;-56
2022/07/03 12:03:49;;;;;;;57.30;51.10;;;;;;;28.78;45.07;99267.75;233372;1217;138834;-56
2022/07/03 12:08:52;;;;;;;6.30;5.50;;;;;;;28.99;44.82;99259.34;233391;1217;140138;-56
2022/07/03 12:13:55;;;;;;;69.00;61.90;;;;;;;29.29;44.54;99256.37;233370;1217;139852;-56
2022/07/03 12:19:03;;;;;;;14.00;12.50;;;;;;;29.49;44.05;99246.20;233334;1217;139185;-57
2022/07/03 12:24:13;;;;;;;9.30;8.50;;;;;;;29.70;43.83;99236.77;233486;1217;139142;-57
2022/07/03 12:29:17;;;;;;;35.90;29.70;;;;;;;29.88;43.39;99231.63;233279;1219;139108;-56
2022/07/03 12:34:20;;;;;;;12.90;10.50;;;;;;;29.95;43.60;99224.27;233270;1217;139705;-56
2022/07/03 12:39:40;;;;;;;5.10;4.60;;;;;;;29.97;42.78;99214.16;233470;1217;140661;-57
2022/07/03 12:44:58;;;;;;;4.90;4.50;;;;;;;30.17;43.49;99211.02;233412;1217;138556;-56
2022/07/03 12:50:04;;;;;;;7.20;4.60;;;;;;;30.34;43.01;99207.05;233593;1216;138650;-56
2022/07/03 12:55:25;;;;;;;6.20;4.30;;;;;;;30.52;42.60;99207.44;233450;1217;139460;-56
2022/07/03 13:00:28;;;;;;;5.10;4.60;;;;;;;30.71;42.10;99209.06;233505;1217;138694;-55
2022/07/03 13:05:31;;;;;;;6.00;4.30;;;;;;;30.90;42.04;99202.13;233660;1217;142881;-56
2022/07/03 13:10:34;;;;;;;5.30;4.80;;;;;;;31.04;41.68;99188.70;233430;1217;139717;-56
2022/07/03 13:15:37;;;;;;;4.40;4.00;;;;;;;31.08;41.28;99188.71;233305;1217;139064;-56
2022/07/03 13:20:40;;;;;;;7.00;5.10;;;;;;;31.15;40.85;99181.50;232831;1215;139419;-56
2022/07/03 13:25:43;;;;;;;5.90;4.30;;;;;;;31.15;40.63;99180.80;233317;1217;138810;-56
2022/07/03 13:30:46;;;;;;;4.50;4.00;;;;;;;31.13;40.23;99175.77;233276;1217;139311;-56
2022/07/03 13:35:50;;;;;;;5.60;4.30;;;;;;;31.23;40.28;99171.11;233502;1217;139470;-56
2022/07/03 13:40:53;;;;;;;14.30;11.60;;;;;;;31.28;39.91;99165.73;233299;1217;139412;-56
2022/07/03 13:45:56;;;;;;;5.30;4.80;;;;;;;31.44;40.01;99162.21;233107;1217;140193;-56
2022/07/03 13:50:59;;;;;;;5.80;5.20;;;;;;;31.65;39.68;99158.67;233131;1217;139325;-55
2022/07/03 13:56:03;;;;;;;59.50;53.00;;;;;;;31.80;39.58;99154.16;233104;1217;139110;-56
2022/07/03 14:01:14;;;;;;;9.90;9.00;;;;;;;31.98;38.93;99151.91;233263;1217;140164;-57
2022/07/03 14:06:17;;;;;;;5.00;4.50;;;;;;;32.11;38.65;99146.55;233569;1217;139575;-56
2022/07/03 14:11:20;;;;;;;6.00;4.30;;;;;;;32.20;38.22;99137.06;233267;1217;139241;-56
2022/07/03 14:16:26;;;;;;;342.70;178.40;;;;;;;32.33;37.87;99141.75;233182;1217;138666;-57
2022/07/03 14:21:30;;;;;;;192.70;100.30;;;;;;;32.28;38.07;99126.53;233209;1217;139539;-57
2022/07/03 14:37:18;;;;;;;6.10;4.60;;;;;;;32.23;37.63;99121.63;233667;1217;138953;-57
2022/07/03 14:42:22;;;;;;;8.10;4.50;;;;;;;32.13;36.89;99114.17;233983;1217;139181;-57
2022/07/03 14:47:25;;;;;;;5.10;4.60;;;;;;;31.95;36.80;99117.31;233921;1216;139141;-57
2022/07/03 14:52:28;;;;;;;5.10;4.60;;;;;;;31.72;36.38;99112.45;233782;1217;139807;-57
2022/07/03 14:57:42;;;;;;;7.90;6.40;;;;;;;31.48;36.22;99114.13;233778;1217;139576;-57
2022/07/03 15:03:03;;;;;;;7.70;5.40;;;;;;;31.17;36.17;99115.31;233898;1217;139258;-57
2022/07/03 15:08:15;;;;;;;8.50;6.40;;;;;;;30.86;36.33;99110.18;234083;1216;138781;-56
2022/07/03 15:13:18;;;;;;;6.50;5.20;;;;;;;30.61;36.65;99101.04;234021;1216;139129;-58
2022/07/03 15:18:21;;;;;;;8.80;5.90;;;;;;;30.23;36.93;99106.27;233977;1216;139065;-57
2022/07/03 15:23:25;;;;;;;5.40;4.90;;;;;;;29.84;37.29;99096.52;233732;1217;139211;-58
2022/07/03 15:28:29;;;;;;;4.90;4.40;;;;;;;29.50;37.47;99097.09;233566;1216;138877;-58
2022/07/03 15:33:32;;;;;;;8.60;6.10;;;;;;;29.31;37.95;99092.67;233496;1216;139066;-57
2022/07/03 15:38:44;;;;;;;153.20;128.30;;;;;;;29.30;38.17;99090.60;233303;1216;139772;-57
2022/07/03 15:44:16;;;;;;;6.80;6.10;;;;;;;29.33;38.17;99093.71;233529;1217;139387;-57
2022/07/03 15:49:29;;;;;;;10.70;8.30;;;;;;;29.33;38.19;99094.42;233461;1217;138860;-56
2022/07/03 15:54:47;;;;;;;5.30;3.80;;;;;;;29.32;38.42;99090.02;233213;1217;139006;-55
2022/07/03 15:59:59;;;;;;;4.80;4.40;;;;;;;29.28;38.24;99088.11;233522;1216;138456;-57
2022/07/03 16:05:09;;;;;;;8.80;5.10;;;;;;;29.20;38.49;99089.77;232977;1216;138707;-57
2022/07/03 16:10:12;;;;;;;24.70;20.00;;;;;;;29.07;38.69;99089.13;233399;1217;138727;-56
2022/07/03 16:15:16;;;;;;;5.80;4.20;;;;;;;28.94;38.87;99079.89;233529;1217;139141;-57
2022/07/03 16:20:20;;;;;;;5.30;4.80;;;;;;;28.84;38.95;99077.66;233439;1216;139239;-58
2022/07/03 16:25:24;;;;;;;6.50;4.60;;;;;;;28.64;39.07;99076.20;233286;1217;138785;-57
2022/07/03 16:30:27;;;;;;;4.90;4.40;;;;;;;28.57;39.25;99071.10;233486;1217;139848;-58
2022/07/03 16:35:36;;;;;;;6.00;4.20;;;;;;;28.47;39.29;99072.07;233415;1217;139277;-58
2022/07/03 16:40:41;;;;;;;4.40;4.00;;;;;;;28.37;39.39;99071.80;233359;1217;138986;-58
2022/07/03 16:45:45;;;;;;;5.90;4.10;;;;;;;28.24;39.48;99069.23;233217;1216;138881;-57
2022/07/03 16:50:51;;;;;;;4.70;3.60;;;;;;;28.15;39.70;99066.61;233134;1217;138882;-55
2022/07/03 16:55:55;;;;;;;6.60;4.50;;;;;;;28.05;39.76;99061.04;233276;1216;138571;-58
2022/07/03 17:01:05;;;;;;;5.80;4.20;;;;;;;27.97;39.97;99062.49;233540;1217;138997;-58
2022/07/03 17:06:10;;;;;;;4.10;3.70;;;;;;;27.92;40.26;99063.84;233279;1217;138292;-56
2022/07/03 17:11:13;;;;;;;3.90;3.50;;;;;;;27.90;40.31;99069.29;233272;1217;139101;-56
2022/07/03 17:16:21;;;;;;;5.30;3.40;;;;;;;27.82;40.37;99064.42;233300;1217;139501;-57
2022/07/03 17:21:35;;;;;;;7.60;3.60;;;;;;;27.82;40.23;99063.34;233488;1217;139559;-56
2022/07/03 17:26:42;;;;;;;4.50;3.60;;;;;;;27.72;40.38;99070.14;233494;1217;139242;-56
2022/07/03 17:31:46;;;;;;;4.00;3.10;;;;;;;27.65;40.35;99074.27;233561;1217;138511;-57
2022/07/03 17:36:51;;;;;;;15.10;13.10;;;;;;;27.59;40.63;99065.16;233462;1216;139237;-57
2022/07/03 17:41:55;;;;;;;4.00;3.60;;;;;;;27.52;40.60;99065.88;233682;1217;138941;-57
2022/07/03 17:47:02;;;;;;;4.90;4.20;;;;;;;27.48;40.69;99067.25;233555;1217;138742;-57
2022/07/03 17:52:05;;;;;;;5.00;3.90;;;;;;;27.43;40.77;99075.44;233574;1216;139545;-57
2022/07/03 18:02:31;;;;;;;6.00;3.10;;;;;;;27.44;40.82;99083.90;233514;1216;140645;-56
2022/07/03 18:07:58;;;;;;;3.40;3.10;;;;;;;27.43;40.87;99083.92;233336;1217;139375;-57
2022/07/03 18:13:19;;;;;;;4.20;3.40;;;;;;;27.39;40.94;99090.17;233474;1217;138873;-55
2022/07/03 18:18:34;;;;;;;3.50;3.20;;;;;;;27.31;41.00;99088.87;233586;1217;138260;-57
2022/07/03 18:23:41;;;;;;;;;;;;;;;27.28;41.06;99096.93;233647;1217;139269;-56
2022/07/03 18:28:44;;;;;;;5.50;3.60;;;;;;;27.22;41.30;99093.56;233449;1217;126656;-57
2022/07/03 18:33:49;;;;;;;5.70;3.50;;;;;;;27.17;41.29;99095.17;233421;1217;138739;-56
2022/07/03 18:38:52;;;;;;;3.50;3.20;;;;;;;27.12;41.55;99095.69;233231;1217;138930;-56
2022/07/03 18:43:57;;;;;;;4.80;3.10;;;;;;;27.04;41.38;99093.30;233533;1217;138685;-56
2022/07/03 18:49:00;;;;;;;4.90;3.30;;;;;;;27.00;41.42;99095.63;233479;1217;138573;-57
2022/07/03 18:54:18;;;;;;;40.10;36.00;;;;;;;26.97;41.49;99105.52;233466;1217;247447;-57
2022/07/03 18:59:28;;;;;;;5.30;4.80;;;;;;;26.93;41.50;99106.30;233587;1217;140159;-56
2022/07/03 19:04:43;;;;;;;6.10;4.00;;;;;;;26.88;41.41;99114.83;233530;1217;139594;-57
2022/07/03 19:09:57;;;;;;;116.50;77.80;;;;;;;26.82;41.59;99115.28;233499;1217;138819;-56
2022/07/03 19:15:00;;;;;;;16.60;10.50;;;;;;;26.71;41.80;99118.84;233256;1217;140233;-56
2022/07/03 19:20:05;;;;;;;6.60;5.80;;;;;;;26.64;41.95;99123.44;233431;1217;138680;-57
2022/07/03 19:25:11;;;;;;;198.20;163.30;;;;;;;26.54;41.86;99121.67;233571;1217;139414;-57
2022/07/03 19:30:15;;;;;;;38.00;34.00;;;;;;;26.45;42.07;99126.73;233698;1215;140318;-57
2022/07/03 19:35:19;;;;;;;7.20;5.40;;;;;;;26.32;42.04;99133.88;233404;1217;141807;-59
2022/07/03 19:40:22;;;;;;;5.10;3.80;;;;;;;26.22;42.20;99141.27;233439;1217;138572;-57
2022/07/03 19:45:25;;;;;;;4.70;3.80;;;;;;;26.11;42.32;99151.77;233532;1217;139219;-57
2022/07/03 19:50:28;;;;;;;5.00;4.50;;;;;;;26.01;42.63;99156.73;233523;1215;138895;-58
2022/07/03 19:55:32;;;;;;;4.00;3.60;;;;;;;25.85;42.73;99154.73;233482;1217;139085;-58
2022/07/03 20:00:36;;;;;;;4.30;3.30;;;;;;;25.66;42.96;99147.16;233435;1216;139506;-57
2022/07/03 20:05:39;;;;;;;5.20;3.40;;;;;;;25.54;43.41;99152.89;233617;1215;140692;-59
2022/07/03 20:10:42;;;;;;;3.50;3.10;;;;;;;25.45;43.76;99158.11;233462;1217;139287;-57
2022/07/03 20:15:45;;;;;;;4.20;3.20;;;;;;;25.34;44.24;99155.10;233432;1217;139547;-58
2022/07/03 20:20:48;;;;;;;9.50;2.90;;;;;;;25.26;44.39;99154.11;233470;1216;138754;-58
2022/07/03 20:25:56;;;;;;;4.80;2.70;;;;;;;25.17;44.70;99163.73;233382;1217;139406;-57
2022/07/03 20:30:59;;;;;;;3.80;3.20;;;;;;;25.06;45.12;99160.42;233604;1216;140046;-57
2022/07/03 20:36:02;;;;;;;5.70;2.70;;;;;;;24.99;45.32;99168.19;233610;1216;139171;-57
2022/07/03 20:41:08;;;;;;;5.60;3.00;;;;;;;24.91;45.45;99169.77;233530;1217;138539;-58
2022/07/03 20:46:11;;;;;;;3.60;2.90;;;;;;;24.78;45.84;99175.77;233538;1216;139042;-58
2022/07/03 20:51:17;;;;;;;3.10;2.70;;;;;;;24.69;46.03;99177.23;233542;1217;138955;-56
2022/07/03 20:56:20;;;;;;;7.50;3.30;;;;;;;24.60;46.29;99177.14;233419;1215;138856;-58
2022/07/03 21:01:28;;;;;;;3.70;2.90;;;;;;;24.52;46.64;99182.73;233562;1215;138947;-58
2022/07/03 21:06:33;;;;;;;2.90;2.50;;;;;;;24.53;46.94;99186.11;233454;1217;139502;-58
2022/07/03 21:11:37;;;;;;;4.30;2.50;;;;;;;24.51;47.11;99181.73;233577;1217;139230;-56
2022/07/03 21:16:42;;;;;;;3.40;2.50;;;;;;;24.46;47.29;99179.48;233530;1216;138659;-57
2022/07/03 21:21:47;;;;;;;2.90;2.40;;;;;;;24.35;47.43;99173.66;233512;1217;139078;-57
2022/07/03 21:26:52;;;;;;;53.30;44.20;;;;;;;24.24;47.65;99179.93;233318;1217;138829;-58
2022/07/03 21:31:56;;;;;;;6.10;3.80;;;;;;;24.14;47.90;99180.95;233564;1216;139400;-59
2022/07/03 21:37:01;;;;;;;5.50;2.70;;;;;;;24.09;48.16;99185.19;233489;1217;139006;-59
2022/07/03 21:42:05;;;;;;;3.30;2.50;;;;;;;24.00;48.21;99183.55;233672;1215;138906;-57
2022/07/03 21:47:08;;;;;;;5.30;2.70;;;;;;;23.91;48.40;99176.27;233566;1215;139220;-59
2022/07/03 21:52:11;;;;;;;4.10;2.90;;;;;;;23.81;48.69;99178.81;233525;1217;139082;-59
2022/07/03 21:57:18;;;;;;;4.70;3.30;;;;;;;23.75;48.76;99178.41;233438;1217;139367;-57
2022/07/03 22:02:21;;;;;;;4.80;2.60;;;;;;;23.68;48.98;99172.77;233474;1217;138930;-58
2022/07/03 22:07:24;;;;;;;4.40;2.90;;;;;;;23.61;49.05;99179.13;233532;1216;138585;-58
2022/07/03 22:12:33;;;;;;;7.80;2.50;;;;;;;23.52;49.28;99178.14;233470;1217;138631;-56
2022/07/03 22:17:46;;;;;;;4.60;3.20;;;;;;;23.43;49.53;99184.11;233614;1217;139099;-57
2022/07/03 22:22:49;;;;;;;4.40;2.90;;;;;;;23.32;49.80;99178.05;233511;1215;139042;-57
2022/07/03 22:27:52;;;;;;;4.20;3.00;;;;;;;23.27;49.88;99181.79;233447;1217;139304;-57
2022/07/03 22:32:55;;;;;;;6.00;2.90;;;;;;;23.20;50.14;99178.02;233684;1216;138599;-59
2022/07/03 22:37:58;;;;;;;4.50;2.70;;;;;;;23.17;50.34;99173.54;233582;1217;141459;-57
2022/07/03 22:43:01;;;;;;;3.40;2.70;;;;;;;23.11;50.48;99162.88;233391;1215;139098;-59
2022/07/03 22:48:04;;;;;;;3.90;2.90;;;;;;;23.04;50.61;99158.55;233741;1217;139009;-57
2022/07/03 22:53:09;;;;;;;3.40;2.90;;;;;;;22.96;50.75;99151.84;233590;1216;139185;-57
2022/07/03 22:58:12;;;;;;;3.10;2.80;;;;;;;22.91;50.95;99156.40;233456;1217;139120;-57
2022/07/03 23:03:15;;;;;;;4.80;3.40;;;;;;;22.86;51.16;99163.09;233435;1217;138872;-59
2022/07/03 23:08:18;;;;;;;4.50;2.90;;;;;;;22.82;51.35;99161.73;233485;1217;139433;-57
2022/07/03 23:13:21;;;;;;;6.00;3.00;;;;;;;22.76;51.48;99155.13;233556;1216;138731;-57
2022/07/03 23:18:24;;;;;;;4.50;3.30;;;;;;;22.71;51.63;99150.65;233557;1217;138951;-56
2022/07/03 23:23:27;;;;;;;6.20;3.30;;;;;;;22.62;51.73;99144.98;233580;1216;139733;-60
2022/07/03 23:28:30;;;;;;;5.40;3.30;;;;;;;22.59;51.95;99140.08;233617;1216;138886;-58
2022/07/03 23:33:33;;;;;;;4.90;3.30;;;;;;;22.54;52.11;99133.14;233564;1217;139046;-57
2022/07/03 23:38:36;;;;;;;3.30;3.00;;;;;;;22.49;52.14;99135.23;233538;1217;139555;-58
2022/07/03 23:43:39;;;;;;;4.80;3.40;;;;;;;22.42;52.38;99131.05;233501;1217;138979;-57
2022/07/03 23:54:04;;;;;;;7.00;6.00;;;;;;;22.29;52.67;99123.35;233746;1216;139150;-59
2022/07/03 23:59:07;;;;;;;6.80;5.70;;;;;;;22.26;52.82;99124.50;233702;1215;138888;-57
